createdAt,value
2019-05-21T00:00:45.638Z,929.38
2019-05-21T00:01:45.703Z,929.37
2019-05-21T00:02:45.734Z,929.35
2019-05-21T00:03:45.778Z,929.34
2019-05-21T00:04:45.808Z,929.33
2019-05-21T00:05:45.875Z,929.32
2019-05-21T00:06:45.911Z,929.30
2019-05-21T00:07:45.931Z,929.31
2019-05-21T00:08:45.971Z,929.31
2019-05-21T00:09:46.028Z,929.29
2019-05-21T00:10:46.078Z,929.31
2019-05-21T00:11:46.123Z,929.32
2019-05-21T00:12:46.144Z,929.33
2019-05-21T00:13:46.203Z,929.35
2019-05-21T00:14:46.218Z,929.35
2019-05-21T00:15:46.287Z,929.40
2019-05-21T00:16:46.334Z,929.38
2019-05-21T00:17:46.376Z,929.39
2019-05-21T00:18:46.432Z,929.38
2019-05-21T00:19:46.481Z,929.40
2019-05-21T00:20:46.509Z,929.38
2019-05-21T00:21:46.558Z,929.39
2019-05-21T00:22:46.591Z,929.39
2019-05-21T00:23:46.644Z,929.41
2019-05-21T00:24:46.712Z,929.43
2019-05-21T00:25:46.718Z,929.43
2019-05-21T00:26:46.756Z,929.45
2019-05-21T00:27:46.822Z,929.48
2019-05-21T00:28:46.841Z,929.50
2019-05-21T00:29:46.889Z,929.52
2019-05-21T00:30:46.939Z,929.53
2019-05-21T00:31:46.990Z,929.55
2019-05-21T00:32:47.024Z,929.59
2019-05-21T00:33:47.069Z,929.57
2019-05-21T00:34:47.108Z,929.56
2019-05-21T00:35:47.182Z,929.64
2019-05-21T00:36:47.187Z,929.63
2019-05-21T00:37:47.228Z,929.63
2019-05-21T00:38:47.262Z,929.65
2019-05-21T00:39:47.324Z,929.62
2019-05-21T00:40:47.415Z,929.64
2019-05-21T00:41:47.433Z,929.61
2019-05-21T00:42:47.449Z,929.59
2019-05-21T00:43:47.496Z,929.58
2019-05-21T00:44:47.552Z,929.56
2019-05-21T00:45:47.586Z,929.57
2019-05-21T00:46:47.670Z,929.57
2019-05-21T00:47:47.714Z,929.60
2019-05-21T00:48:47.707Z,929.58
2019-05-21T00:49:47.769Z,929.55
2019-05-21T00:50:47.799Z,929.54
2019-05-21T00:51:47.900Z,929.54
2019-05-21T00:52:47.892Z,929.54
2019-05-21T00:53:47.939Z,929.51
2019-05-21T00:54:47.971Z,929.56
2019-05-21T00:55:49.764Z,929.55
2019-05-21T00:56:48.089Z,929.54
2019-05-21T00:57:48.139Z,929.54
2019-05-21T00:58:48.153Z,929.57
2019-05-21T00:59:48.192Z,929.55
2019-05-21T01:00:48.283Z,929.55
2019-05-21T01:01:48.335Z,929.53
2019-05-21T01:02:48.483Z,929.53
2019-05-21T01:03:48.412Z,929.54
2019-05-21T01:05:00.275Z,929.56
2019-05-21T01:05:48.512Z,929.60
2019-05-21T01:06:48.535Z,929.56
2019-05-21T01:07:48.535Z,929.55
2019-05-21T01:08:48.763Z,929.54
2019-05-21T01:09:48.664Z,929.54
2019-05-21T01:10:48.754Z,929.51
2019-05-21T01:11:48.761Z,929.54
2019-05-21T01:12:48.797Z,929.55
2019-05-21T01:13:48.951Z,929.52
2019-05-21T01:14:48.835Z,929.54
2019-05-21T01:15:48.931Z,929.49
2019-05-21T01:16:48.981Z,929.51
2019-05-21T01:17:49.278Z,929.51
2019-05-21T01:18:49.056Z,929.53
2019-05-21T01:19:49.208Z,929.57
2019-05-21T01:20:49.143Z,929.56
2019-05-21T01:21:49.173Z,929.59
2019-05-21T01:22:49.174Z,929.59
2019-05-21T01:23:49.294Z,929.60
2019-05-21T01:24:49.274Z,929.59
2019-05-21T01:25:49.351Z,929.62
2019-05-21T01:26:49.427Z,929.60
2019-05-21T01:27:49.454Z,929.61
2019-05-21T01:28:49.493Z,929.63
2019-05-21T01:29:49.542Z,929.68
2019-05-21T01:30:49.665Z,929.72
2019-05-21T01:31:49.602Z,929.71
2019-05-21T01:32:49.653Z,929.72
2019-05-21T01:33:49.670Z,929.70
2019-05-21T01:34:49.752Z,929.70
2019-05-21T01:35:49.802Z,929.68
2019-05-21T01:36:49.968Z,929.65
2019-05-21T01:37:49.894Z,929.68
2019-05-21T01:38:49.918Z,929.68
2019-05-21T01:39:49.975Z,929.69
2019-05-21T01:40:49.952Z,929.68
2019-05-21T01:41:50.127Z,929.70
2019-05-21T01:42:50.088Z,929.70
2019-05-21T01:43:50.137Z,929.70
2019-05-21T01:44:50.202Z,929.65
2019-05-21T01:45:50.188Z,929.63
2019-05-21T01:46:50.275Z,929.64
2019-05-21T01:47:50.266Z,929.66
2019-05-21T01:48:50.291Z,929.62
2019-05-21T01:49:50.365Z,929.62
2019-05-21T01:50:50.417Z,929.65
2019-05-21T01:51:50.443Z,929.67
2019-05-21T01:52:50.529Z,929.65
2019-05-21T01:53:50.543Z,929.64
2019-05-21T01:54:50.613Z,929.66
2019-05-21T01:55:50.626Z,929.64
2019-05-21T01:56:50.656Z,929.61
2019-05-21T01:57:50.736Z,929.63
2019-05-21T01:58:50.751Z,929.58
2019-05-21T01:59:50.791Z,929.58
2019-05-21T02:00:50.894Z,929.53
2019-05-21T02:01:50.852Z,929.59
2019-05-21T02:02:50.916Z,929.56
2019-05-21T02:03:50.967Z,929.57
2019-05-21T02:04:51.077Z,929.58
2019-05-21T02:05:51.057Z,929.54
2019-05-21T02:06:51.077Z,929.55
2019-05-21T02:07:51.137Z,929.55
2019-05-21T02:08:51.189Z,929.58
2019-05-21T02:09:51.294Z,929.55
2019-05-21T02:10:51.259Z,929.58
2019-05-21T02:11:51.295Z,929.57
2019-05-21T02:12:51.386Z,929.53
2019-05-21T02:13:51.434Z,929.57
2019-05-21T02:14:51.446Z,929.58
2019-05-21T02:15:51.484Z,929.56
2019-05-21T02:16:51.516Z,929.55
2019-05-21T02:17:51.566Z,929.59
2019-05-21T02:18:51.647Z,929.55
2019-05-21T02:19:51.698Z,929.54
2019-05-21T02:20:51.687Z,929.52
2019-05-21T02:21:51.754Z,929.59
2019-05-21T02:22:51.787Z,929.55
2019-05-21T02:23:51.807Z,929.53
2019-05-21T02:24:51.843Z,929.60
2019-05-21T02:25:51.904Z,929.60
2019-05-21T02:26:51.938Z,929.60
2019-05-21T02:27:52.008Z,929.60
2019-05-21T02:28:52.039Z,929.60
2019-05-21T02:29:52.057Z,929.62
2019-05-21T02:30:56.204Z,929.62
2019-05-21T02:31:52.167Z,929.63
2019-05-21T02:32:52.194Z,929.62
2019-05-21T02:33:52.233Z,929.61
2019-05-21T02:34:52.302Z,929.60
2019-05-21T02:35:54.637Z,929.56
2019-05-21T02:36:52.375Z,929.54
2019-05-21T02:37:52.430Z,929.56
2019-05-21T02:38:52.508Z,929.57
2019-05-21T02:39:52.498Z,929.55
2019-05-21T02:40:52.562Z,929.51
2019-05-21T02:41:52.620Z,929.53
2019-05-21T02:42:52.636Z,929.54
2019-05-21T02:43:52.701Z,929.48
2019-05-21T02:44:54.139Z,929.50
2019-05-21T02:45:52.798Z,929.52
2019-05-21T02:46:52.856Z,929.48
2019-05-21T02:47:52.859Z,929.45
2019-05-21T02:48:52.907Z,929.49
2019-05-21T02:49:52.960Z,929.47
2019-05-21T02:50:52.981Z,929.47
2019-05-21T02:51:53.047Z,929.47
2019-05-21T02:52:53.056Z,929.47
2019-05-21T02:53:53.113Z,929.47
2019-05-21T02:54:53.190Z,929.45
2019-05-21T02:55:53.222Z,929.44
2019-05-21T02:56:53.247Z,929.42
2019-05-21T02:57:53.288Z,929.41
2019-05-21T02:58:53.337Z,929.42
2019-05-21T02:59:53.354Z,929.44
2019-05-21T03:00:53.424Z,929.43
2019-05-21T03:01:53.460Z,929.43
2019-05-21T03:02:53.507Z,929.40
2019-05-21T03:03:53.541Z,929.41
2019-05-21T03:04:53.585Z,929.39
2019-05-21T03:06:10.500Z,929.40
2019-05-21T03:06:53.670Z,929.42
2019-05-21T03:07:53.692Z,929.42
2019-05-21T03:08:53.756Z,929.42
2019-05-21T03:09:53.816Z,929.40
2019-05-21T03:10:53.837Z,929.43
2019-05-21T03:11:53.874Z,929.41
2019-05-21T03:12:53.922Z,929.41
2019-05-21T03:13:53.953Z,929.45
2019-05-21T03:14:54.029Z,929.44
2019-05-21T03:15:54.050Z,929.46
2019-05-21T03:16:54.086Z,929.45
2019-05-21T03:17:54.181Z,929.44
2019-05-21T03:18:54.198Z,929.45
2019-05-21T03:19:54.214Z,929.42
2019-05-21T03:20:54.241Z,929.42
2019-05-21T03:21:54.289Z,929.40
2019-05-21T03:22:54.347Z,929.38
2019-05-21T03:23:54.387Z,929.38
2019-05-21T03:24:54.421Z,929.38
2019-05-21T03:25:54.476Z,929.34
2019-05-21T03:26:54.543Z,929.38
2019-05-21T03:27:54.573Z,929.32
2019-05-21T03:28:54.609Z,929.33
2019-05-21T03:29:54.639Z,929.29
2019-05-21T03:30:54.713Z,929.32
2019-05-21T03:31:54.794Z,929.28
2019-05-21T03:32:54.762Z,929.27
2019-05-21T03:33:54.827Z,929.33
2019-05-21T03:34:54.844Z,929.26
2019-05-21T03:35:54.944Z,929.29
2019-05-21T03:36:54.945Z,929.35
2019-05-21T03:37:54.982Z,929.31
2019-05-21T03:38:55.027Z,929.38
2019-05-21T03:39:55.067Z,929.32
2019-05-21T03:40:55.105Z,929.34
2019-05-21T03:41:55.180Z,929.28
2019-05-21T03:42:55.203Z,929.26
2019-05-21T03:43:55.235Z,929.24
2019-05-21T03:44:59.644Z,929.21
2019-05-21T03:45:55.307Z,929.24
2019-05-21T03:46:55.373Z,929.21
2019-05-21T03:47:55.483Z,929.21
2019-05-21T03:48:55.485Z,929.17
2019-05-21T03:49:55.481Z,929.19
2019-05-21T03:50:55.529Z,929.22
2019-05-21T03:51:55.573Z,929.23
2019-05-21T03:52:55.629Z,929.21
2019-05-21T03:53:55.662Z,929.24
2019-05-21T03:54:55.708Z,929.23
2019-05-21T03:55:55.746Z,929.23
2019-05-21T03:56:55.812Z,929.24
2019-05-21T03:57:55.820Z,929.24
2019-05-21T03:58:55.885Z,929.27
2019-05-21T03:59:55.912Z,929.26
2019-05-21T04:00:55.979Z,929.27
2019-05-21T04:01:56.011Z,929.24
2019-05-21T04:02:56.035Z,929.19
2019-05-21T04:03:56.080Z,929.23
2019-05-21T04:04:56.117Z,929.18
2019-05-21T04:05:56.166Z,929.15
2019-05-21T04:06:56.208Z,929.16
2019-05-21T04:07:56.271Z,929.19
2019-05-21T04:08:56.421Z,929.17
2019-05-21T04:09:56.379Z,929.16
2019-05-21T04:10:56.427Z,929.19
2019-05-21T04:11:56.474Z,929.16
2019-05-21T04:12:56.440Z,929.14
2019-05-21T04:13:56.506Z,929.14
2019-05-21T04:14:56.546Z,929.14
2019-05-21T04:15:56.583Z,929.09
2019-05-21T04:16:56.645Z,929.08
2019-05-21T04:17:56.677Z,929.10
2019-05-21T04:18:56.683Z,929.06
2019-05-21T04:19:56.761Z,929.05
2019-05-21T04:20:56.851Z,929.02
2019-05-21T04:21:56.844Z,929.04
2019-05-21T04:22:56.892Z,929.03
2019-05-21T04:23:56.969Z,929.02
2019-05-21T04:24:56.976Z,929.05
2019-05-21T04:25:57.009Z,929.06
2019-05-21T04:26:57.032Z,929.06
2019-05-21T04:27:57.096Z,929.08
2019-05-21T04:28:57.177Z,929.06
2019-05-21T04:29:57.166Z,929.08
2019-05-21T04:30:57.243Z,929.11
2019-05-21T04:31:57.242Z,929.08
2019-05-21T04:32:57.305Z,929.06
2019-05-21T04:33:57.369Z,929.08
2019-05-21T04:34:57.409Z,929.08
2019-05-21T04:35:57.444Z,929.05
2019-05-21T04:37:09.783Z,929.04
2019-05-21T04:37:57.553Z,929.04
2019-05-21T04:38:57.556Z,929.03
2019-05-21T04:39:57.589Z,929.06
2019-05-21T04:40:57.687Z,928.98
2019-05-21T04:41:57.677Z,928.98
2019-05-21T04:43:01.701Z,928.96
2019-05-21T04:43:57.776Z,928.91
2019-05-21T04:44:57.846Z,928.88
2019-05-21T04:45:57.835Z,928.86
2019-05-21T04:46:57.889Z,928.91
2019-05-21T04:47:57.936Z,928.88
2019-05-21T04:48:57.958Z,928.88
2019-05-21T04:49:58.007Z,928.87
2019-05-21T04:50:58.047Z,928.83
2019-05-21T04:51:58.151Z,928.86
2019-05-21T04:52:58.143Z,928.84
2019-05-21T04:53:58.183Z,928.85
2019-05-21T04:54:58.234Z,928.84
2019-05-21T04:55:58.280Z,928.85
2019-05-21T04:56:58.317Z,928.84
2019-05-21T04:57:58.360Z,928.81
2019-05-21T04:58:58.407Z,928.82
2019-05-21T04:59:58.488Z,928.83
2019-05-21T05:00:58.486Z,928.83
2019-05-21T05:01:58.511Z,928.84
2019-05-21T05:02:58.565Z,928.84
2019-05-21T05:03:58.593Z,928.85
2019-05-21T05:04:58.649Z,928.87
2019-05-21T05:05:58.736Z,928.84
2019-05-21T05:06:58.723Z,928.82
2019-05-21T05:07:58.787Z,928.81
2019-05-21T05:08:58.789Z,928.79
2019-05-21T05:09:58.859Z,928.81
2019-05-21T05:10:58.886Z,928.77
2019-05-21T05:11:58.958Z,928.77
2019-05-21T05:12:58.977Z,928.71
2019-05-21T05:13:59.039Z,928.73
2019-05-21T05:14:59.078Z,928.71
2019-05-21T05:15:59.107Z,928.68
2019-05-21T05:16:59.142Z,928.68
2019-05-21T05:17:59.242Z,928.66
2019-05-21T05:18:59.245Z,928.67
2019-05-21T05:19:59.271Z,928.68
2019-05-21T05:20:59.304Z,928.64
2019-05-21T05:21:59.393Z,928.62
2019-05-21T05:22:59.409Z,928.66
2019-05-21T05:23:59.425Z,928.66
2019-05-21T05:24:59.493Z,928.62
2019-05-21T05:25:59.506Z,928.60
2019-05-21T05:26:59.589Z,928.63
2019-05-21T05:27:59.600Z,928.58
2019-05-21T05:28:59.681Z,928.54
2019-05-21T05:29:59.698Z,928.50
2019-05-21T05:30:59.727Z,928.48
2019-05-21T05:31:59.772Z,928.52
2019-05-21T05:32:59.803Z,928.47
2019-05-21T05:33:59.832Z,928.45
2019-05-21T05:34:59.904Z,928.47
2019-05-21T05:35:59.944Z,928.45
2019-05-21T05:37:00.006Z,928.49
2019-05-21T05:38:00.024Z,928.47
2019-05-21T05:39:00.072Z,928.50
2019-05-21T05:40:00.089Z,928.47
2019-05-21T05:41:00.182Z,928.46
2019-05-21T05:42:00.182Z,928.41
2019-05-21T05:43:00.260Z,928.44
2019-05-21T05:44:00.264Z,928.39
2019-05-21T05:45:00.319Z,928.37
2019-05-21T05:46:00.375Z,928.38
2019-05-21T05:47:00.451Z,928.34
2019-05-21T05:48:00.446Z,928.34
2019-05-21T05:49:01.869Z,928.30
2019-05-21T05:50:00.521Z,928.30
2019-05-21T05:51:00.582Z,928.25
2019-05-21T05:52:00.602Z,928.22
2019-05-21T05:53:00.665Z,928.23
2019-05-21T05:54:00.692Z,928.22
2019-05-21T05:55:00.723Z,928.22
2019-05-21T05:56:00.777Z,928.22
2019-05-21T05:57:00.834Z,928.22
2019-05-21T05:58:00.886Z,928.21
2019-05-21T05:59:00.903Z,928.18
2019-05-21T06:00:00.951Z,928.20
2019-05-21T06:01:00.993Z,928.20
2019-05-21T06:02:01.038Z,928.20
2019-05-21T06:03:01.074Z,928.20
2019-05-21T06:04:01.138Z,928.22
2019-05-21T06:05:01.180Z,928.20
2019-05-21T06:06:01.208Z,928.19
2019-05-21T06:07:01.232Z,928.24
2019-05-21T06:08:01.296Z,928.22
2019-05-21T06:09:01.344Z,928.22
2019-05-21T06:10:01.435Z,928.20
2019-05-21T06:11:01.390Z,928.22
2019-05-21T06:12:01.500Z,928.23
2019-05-21T06:13:01.477Z,928.19
2019-05-21T06:14:01.536Z,928.25
2019-05-21T06:15:01.597Z,928.25
2019-05-21T06:16:01.633Z,928.26
2019-05-21T06:17:01.733Z,928.27
2019-05-21T06:18:01.690Z,928.28
2019-05-21T06:19:01.714Z,928.27
2019-05-21T06:20:01.805Z,928.27
2019-05-21T06:21:01.822Z,928.25
2019-05-21T06:22:01.865Z,928.23
2019-05-21T06:23:01.891Z,928.23
2019-05-21T06:24:01.954Z,928.18
2019-05-21T06:25:02.046Z,928.20
2019-05-21T06:26:02.023Z,928.24
2019-05-21T06:27:02.052Z,928.20
2019-05-21T06:28:02.135Z,928.24
2019-05-21T06:29:02.169Z,928.23
2019-05-21T06:30:02.206Z,928.23
2019-05-21T06:31:02.249Z,928.18
2019-05-21T06:32:02.326Z,928.18
2019-05-21T06:33:02.334Z,928.22
2019-05-21T06:34:02.335Z,928.20
2019-05-21T06:35:02.407Z,928.14
2019-05-21T06:36:02.421Z,928.13
2019-05-21T06:37:02.505Z,928.14
2019-05-21T06:38:16.665Z,928.11
2019-05-21T06:39:02.560Z,928.10
2019-05-21T06:40:02.617Z,928.08
2019-05-21T06:41:02.707Z,928.10
2019-05-21T06:42:02.708Z,928.05
2019-05-21T06:43:02.771Z,928.03
2019-05-21T06:44:02.775Z,928.03
2019-05-21T06:45:03.380Z,928.05
2019-05-21T06:46:02.852Z,928.07
2019-05-21T06:47:02.896Z,928.13
2019-05-21T06:48:02.928Z,928.15
2019-05-21T06:49:02.980Z,928.13
2019-05-21T06:50:03.020Z,928.12
2019-05-21T06:51:03.067Z,928.11
2019-05-21T06:52:03.093Z,928.10
2019-05-21T06:53:03.161Z,928.09
2019-05-21T06:54:03.184Z,928.06
2019-05-21T06:55:03.255Z,928.06
2019-05-21T06:56:07.186Z,928.03
2019-05-21T06:57:03.363Z,928.03
2019-05-21T06:58:03.403Z,927.99
2019-05-21T06:59:03.398Z,928.02
2019-05-21T07:00:03.428Z,928.01
2019-05-21T07:01:03.472Z,928.07
2019-05-21T07:02:03.564Z,928.04
2019-05-21T07:03:03.565Z,928.05
2019-05-21T07:04:03.616Z,928.07
2019-05-21T07:05:03.640Z,928.05
2019-05-21T07:06:03.657Z,928.07
2019-05-21T07:07:03.734Z,928.05
2019-05-21T07:08:03.780Z,928.04
2019-05-21T07:09:03.807Z,928.10
2019-05-21T07:10:03.880Z,928.05
2019-05-21T07:11:03.900Z,928.02
2019-05-21T07:12:03.938Z,928.03
2019-05-21T07:13:03.960Z,928.04
2019-05-21T07:14:04.004Z,928.05
2019-05-21T07:15:04.067Z,928.05
2019-05-21T07:16:04.108Z,928.05
2019-05-21T07:17:04.129Z,928.02
2019-05-21T07:18:04.222Z,928.04
2019-05-21T07:19:04.269Z,928.05
2019-05-21T07:20:04.268Z,928.06
2019-05-21T07:21:04.315Z,928.07
2019-05-21T07:22:12.637Z,928.08
2019-05-21T07:23:04.530Z,928.09
2019-05-21T07:24:04.431Z,928.06
2019-05-21T07:25:04.475Z,928.05
2019-05-21T07:26:04.493Z,928.01
2019-05-21T07:27:04.552Z,928.01
2019-05-21T07:28:04.593Z,927.98
2019-05-21T07:29:04.641Z,927.93
2019-05-21T07:30:04.667Z,927.94
2019-05-21T07:31:04.716Z,927.92
2019-05-21T07:32:04.773Z,927.96
2019-05-21T07:33:05.070Z,927.98
2019-05-21T07:34:04.825Z,927.97
2019-05-21T07:35:04.856Z,927.95
2019-05-21T07:36:04.909Z,927.94
2019-05-21T07:37:04.971Z,927.93
2019-05-21T07:38:05.002Z,927.95
2019-05-21T07:39:05.041Z,927.94
2019-05-21T07:40:05.072Z,927.92
2019-05-21T07:41:05.138Z,927.94
2019-05-21T07:42:05.200Z,927.91
2019-05-21T07:43:05.220Z,927.92
2019-05-21T07:44:05.306Z,927.90
2019-05-21T07:45:05.273Z,927.92
2019-05-21T07:46:05.356Z,927.94
2019-05-21T07:47:05.353Z,927.92
2019-05-21T07:48:05.407Z,927.96
2019-05-21T07:49:05.480Z,927.93
2019-05-21T07:50:05.491Z,927.90
2019-05-21T07:51:05.534Z,927.93
2019-05-21T07:52:05.564Z,927.94
2019-05-21T07:53:05.609Z,927.93
2019-05-21T07:54:05.684Z,927.94
2019-05-21T07:55:05.731Z,927.97
2019-05-21T07:56:05.760Z,927.90
2019-05-21T07:57:05.794Z,927.91
2019-05-21T07:58:05.822Z,927.93
2019-05-21T07:59:05.862Z,927.95
2019-05-21T08:00:05.905Z,927.92
2019-05-21T08:01:05.948Z,927.95
2019-05-21T08:02:05.998Z,927.96
2019-05-21T08:03:06.086Z,927.98
2019-05-21T08:04:06.073Z,927.98
2019-05-21T08:05:06.384Z,927.96
2019-05-21T08:06:06.147Z,927.95
2019-05-21T08:07:06.193Z,927.98
2019-05-21T08:08:06.233Z,927.98
2019-05-21T08:09:13.162Z,928.02
2019-05-21T08:10:06.323Z,928.04
2019-05-21T08:11:06.347Z,928.03
2019-05-21T08:12:22.714Z,928.04
2019-05-21T08:13:06.433Z,928.06
2019-05-21T08:14:06.492Z,928.03
2019-05-21T08:15:06.527Z,928.04
2019-05-21T08:16:06.546Z,928.05
2019-05-21T08:17:06.625Z,928.10
2019-05-21T08:18:06.648Z,928.06
2019-05-21T08:19:06.708Z,928.06
2019-05-21T08:20:09.887Z,928.07
2019-05-21T08:21:06.780Z,928.08
2019-05-21T08:22:06.816Z,928.08
2019-05-21T08:23:06.886Z,928.08
2019-05-21T08:24:06.898Z,928.13
2019-05-21T08:25:06.932Z,928.08
2019-05-21T08:26:06.967Z,928.11
2019-05-21T08:27:07.021Z,928.07
2019-05-21T08:28:07.043Z,928.06
2019-05-21T08:29:07.106Z,928.05
2019-05-21T08:30:07.169Z,928.03
2019-05-21T08:31:07.182Z,928.05
2019-05-21T08:32:07.229Z,928.11
2019-05-21T08:33:07.245Z,928.06
2019-05-21T08:34:07.359Z,928.09
2019-05-21T08:35:07.356Z,928.05
2019-05-21T08:36:07.400Z,928.06
2019-05-21T08:37:07.425Z,927.98
2019-05-21T08:38:07.457Z,927.97
2019-05-21T08:39:07.526Z,927.92
2019-05-21T08:40:07.541Z,927.97
2019-05-21T08:41:07.576Z,927.97
2019-05-21T08:42:07.646Z,927.95
2019-05-21T08:43:07.670Z,927.95
2019-05-21T08:44:07.737Z,927.94
2019-05-21T08:45:07.812Z,927.99
2019-05-21T08:46:07.810Z,927.98
2019-05-21T08:47:07.842Z,927.97
2019-05-21T08:48:07.914Z,928.02
2019-05-21T08:49:07.894Z,928.05
2019-05-21T08:50:07.996Z,928.02
2019-05-21T08:51:08.026Z,928.01
2019-05-21T08:52:08.041Z,928.01
2019-05-21T08:53:08.069Z,928.05
2019-05-21T08:54:08.105Z,928.04
2019-05-21T08:55:08.161Z,928.04
2019-05-21T08:56:08.211Z,928.03
2019-05-21T08:57:08.247Z,927.98
2019-05-21T08:58:08.282Z,927.98
2019-05-21T08:59:08.346Z,927.94
2019-05-21T09:00:08.377Z,927.95
2019-05-21T09:01:08.437Z,927.92
2019-05-21T09:02:08.462Z,927.92
2019-05-21T09:03:08.506Z,927.97
2019-05-21T09:04:08.536Z,927.94
2019-05-21T09:05:08.620Z,927.95
2019-05-21T09:06:08.681Z,927.97
2019-05-21T09:07:08.704Z,927.99
2019-05-21T09:08:08.726Z,927.98
2019-05-21T09:09:08.735Z,927.97
2019-05-21T09:10:08.805Z,928.02
2019-05-21T09:11:08.836Z,928.01
2019-05-21T09:12:08.869Z,928.05
2019-05-21T09:13:08.909Z,928.08
2019-05-21T09:14:08.972Z,928.15
2019-05-21T09:15:09.046Z,928.15
2019-05-21T09:16:09.035Z,928.19
2019-05-21T09:17:09.108Z,928.16
2019-05-21T09:18:09.142Z,928.25
2019-05-21T09:19:09.169Z,928.22
2019-05-21T09:20:09.241Z,928.24
2019-05-21T09:21:09.247Z,928.23
2019-05-21T09:22:09.317Z,928.26
2019-05-21T09:23:09.337Z,928.27
2019-05-21T09:24:09.372Z,928.27
2019-05-21T09:25:09.531Z,928.30
2019-05-21T09:26:09.499Z,928.31
2019-05-21T09:27:09.475Z,928.30
2019-05-21T09:28:09.531Z,928.31
2019-05-21T09:29:09.562Z,928.32
2019-05-21T09:30:09.653Z,928.31
2019-05-21T09:31:09.642Z,928.36
2019-05-21T09:32:09.687Z,928.35
2019-05-21T09:33:09.737Z,928.34
2019-05-21T09:34:09.784Z,928.36
2019-05-21T09:35:09.805Z,928.37
2019-05-21T09:36:09.885Z,928.38
2019-05-21T09:37:19.220Z,928.36
2019-05-21T09:38:09.958Z,928.38
2019-05-21T09:39:10.002Z,928.33
2019-05-21T09:40:10.069Z,928.36
2019-05-21T09:41:10.060Z,928.41
2019-05-21T09:42:10.156Z,928.41
2019-05-21T09:43:10.159Z,928.42
2019-05-21T09:44:10.178Z,928.41
2019-05-21T09:45:10.225Z,928.45
2019-05-21T09:46:10.321Z,928.44
2019-05-21T09:47:10.301Z,928.46
2019-05-21T09:48:10.333Z,928.52
2019-05-21T09:49:10.390Z,928.50
2019-05-21T09:50:10.435Z,928.54
2019-05-21T09:51:10.480Z,928.53
2019-05-21T09:52:10.533Z,928.54
2019-05-21T09:53:10.587Z,928.51
2019-05-21T09:54:10.604Z,928.51
2019-05-21T09:55:10.713Z,928.55
2019-05-21T09:56:10.698Z,928.53
2019-05-21T09:57:10.730Z,928.52
2019-05-21T09:58:10.786Z,928.53
2019-05-21T09:59:10.813Z,928.59
2019-05-21T10:00:10.867Z,928.55
2019-05-21T10:01:10.894Z,928.61
2019-05-21T10:02:10.919Z,928.62
2019-05-21T10:03:10.972Z,928.61
2019-05-21T10:04:11.030Z,928.62
2019-05-21T10:05:11.069Z,928.62
2019-05-21T10:06:11.103Z,928.66
2019-05-21T10:07:11.159Z,928.65
2019-05-21T10:08:11.207Z,928.69
2019-05-21T10:09:11.217Z,928.71
2019-05-21T10:10:11.278Z,928.74
2019-05-21T10:11:11.349Z,928.74
2019-05-21T10:12:11.351Z,928.72
2019-05-21T10:13:11.421Z,928.71
2019-05-21T10:14:11.448Z,928.69
2019-05-21T10:15:11.469Z,928.69
2019-05-21T10:16:11.493Z,928.68
2019-05-21T10:17:11.564Z,928.65
2019-05-21T10:18:11.615Z,928.62
2019-05-21T10:19:11.649Z,928.67
2019-05-21T10:20:11.702Z,928.63
2019-05-21T10:21:11.715Z,928.69
2019-05-21T10:22:11.806Z,928.68
2019-05-21T10:23:11.799Z,928.68
2019-05-21T10:24:11.845Z,928.68
2019-05-21T10:25:11.906Z,928.68
2019-05-21T10:26:11.926Z,928.69
2019-05-21T10:27:11.965Z,928.70
2019-05-21T10:28:12.027Z,928.65
2019-05-21T10:29:12.279Z,928.70
2019-05-21T10:30:12.092Z,928.69
2019-05-21T10:31:12.172Z,928.71
2019-05-21T10:32:12.175Z,928.78
2019-05-21T10:33:12.228Z,928.76
2019-05-21T10:34:13.392Z,928.77
2019-05-21T10:35:12.359Z,928.73
2019-05-21T10:36:12.379Z,928.75
2019-05-21T10:37:12.373Z,928.77
2019-05-21T10:38:12.481Z,928.81
2019-05-21T10:39:12.478Z,928.77
2019-05-21T10:40:12.508Z,928.80
2019-05-21T10:41:12.556Z,928.82
2019-05-21T10:42:12.606Z,928.83
2019-05-21T10:43:12.653Z,928.84
2019-05-21T10:44:12.696Z,928.83
2019-05-21T10:45:12.751Z,928.86
2019-05-21T10:46:12.773Z,928.88
2019-05-21T10:47:16.167Z,928.85
2019-05-21T10:48:12.868Z,928.87
2019-05-21T10:49:12.961Z,928.86
2019-05-21T10:50:12.978Z,928.90
2019-05-21T10:51:13.048Z,928.92
2019-05-21T10:52:13.028Z,928.91
2019-05-21T10:53:13.060Z,928.95
2019-05-21T10:54:13.128Z,928.92
2019-05-21T10:55:15.953Z,928.90
2019-05-21T10:56:13.206Z,928.93
2019-05-21T10:57:13.256Z,928.92
2019-05-21T10:58:13.291Z,928.94
2019-05-21T10:59:13.345Z,928.94
2019-05-21T11:00:13.371Z,929.04
2019-05-21T11:01:13.454Z,928.98
2019-05-21T11:02:13.442Z,929.02
2019-05-21T11:03:13.527Z,929.08
2019-05-21T11:04:13.548Z,929.06
2019-05-21T11:05:13.617Z,929.06
2019-05-21T11:06:13.682Z,929.09
2019-05-21T11:07:13.671Z,929.08
2019-05-21T11:08:23.532Z,929.12
2019-05-21T11:09:13.765Z,929.11
2019-05-21T11:10:14.038Z,929.16
2019-05-21T11:11:13.843Z,929.17
2019-05-21T11:12:13.914Z,929.21
2019-05-21T11:13:13.947Z,929.20
2019-05-21T11:14:13.989Z,929.23
2019-05-21T11:15:14.065Z,929.15
2019-05-21T11:16:14.146Z,929.22
2019-05-21T11:17:14.131Z,929.24
2019-05-21T11:18:14.165Z,929.22
2019-05-21T11:19:14.217Z,929.25
2019-05-21T11:20:14.262Z,929.26
2019-05-21T11:21:14.284Z,929.31
2019-05-21T11:22:14.382Z,929.33
2019-05-21T11:23:14.356Z,929.29
2019-05-21T11:24:14.603Z,929.35
2019-05-21T11:25:14.480Z,929.34
2019-05-21T11:26:14.517Z,929.25
2019-05-21T11:27:14.556Z,929.29
2019-05-21T11:28:14.583Z,929.29
2019-05-21T11:29:14.712Z,929.29
2019-05-21T11:30:14.683Z,929.28
2019-05-21T11:31:14.741Z,929.29
2019-05-21T11:32:14.781Z,929.31
2019-05-21T11:33:14.830Z,929.31
2019-05-21T11:34:14.863Z,929.31
2019-05-21T11:35:14.909Z,929.32
2019-05-21T11:36:14.936Z,929.32
2019-05-21T11:37:14.976Z,929.32
2019-05-21T11:38:15.054Z,929.31
2019-05-21T11:39:15.070Z,929.36
2019-05-21T11:40:15.116Z,929.34
2019-05-21T11:41:15.229Z,929.33
2019-05-21T11:42:15.239Z,929.36
2019-05-21T11:43:15.264Z,929.39
2019-05-21T11:44:15.343Z,929.44
2019-05-21T11:45:31.171Z,929.37
2019-05-21T11:46:15.398Z,929.39
2019-05-21T11:47:15.456Z,929.40
2019-05-21T11:48:15.504Z,929.42
2019-05-21T11:49:15.591Z,929.44
2019-05-21T11:50:15.801Z,929.42
2019-05-21T11:51:15.678Z,929.40
2019-05-21T11:52:15.684Z,929.45
2019-05-21T11:53:15.743Z,929.48
2019-05-21T11:54:15.793Z,929.48
2019-05-21T11:55:15.834Z,929.49
2019-05-21T11:56:15.941Z,929.53
2019-05-21T11:57:15.968Z,929.57
2019-05-21T11:58:15.993Z,929.53
2019-05-21T11:59:16.133Z,929.54
2019-05-21T12:00:16.100Z,929.51
2019-05-21T12:01:16.232Z,929.54
2019-05-21T12:02:16.173Z,929.53
2019-05-21T12:03:16.221Z,929.48
2019-05-21T12:04:16.277Z,929.49
2019-05-21T12:05:16.333Z,929.50
2019-05-21T12:06:16.371Z,929.52
2019-05-21T12:07:16.430Z,929.48
2019-05-21T12:08:16.458Z,929.49
2019-05-21T12:09:16.510Z,929.50
2019-05-21T12:10:16.545Z,929.47
2019-05-21T12:11:16.844Z,929.46
2019-05-21T12:12:16.662Z,929.48
2019-05-21T12:13:20.179Z,929.52
2019-05-21T12:14:16.796Z,929.47
2019-05-21T12:15:16.797Z,929.51
2019-05-21T12:16:16.855Z,929.54
2019-05-21T12:17:16.894Z,929.57
2019-05-21T12:18:16.955Z,929.58
2019-05-21T12:19:17.003Z,929.59
2019-05-21T12:20:17.046Z,929.66
2019-05-21T12:21:17.107Z,929.66
2019-05-21T12:22:17.126Z,929.70
2019-05-21T12:23:17.209Z,929.72
2019-05-21T12:24:17.219Z,929.71
2019-05-21T12:25:17.288Z,929.71
2019-05-21T12:26:17.346Z,929.70
2019-05-21T12:27:17.388Z,929.71
2019-05-21T12:28:17.460Z,929.73
2019-05-21T12:29:17.514Z,929.72